sensor_id;sensor_type;location;lat;lon;timestamp;noise_LAeq;noise_LA_min;noise_LA_max;noise_LA01;noise_LA95
77135;Laerm;48586;50.122;18.972;2024-03-29T00:02:50;128.85;118.86;132.14;;
77135;Laerm;48586;50.122;18.972;2024-03-29T00:05:56;128.89;111.33;131.63;;
77135;Laerm;48586;50.122;18.972;2024-03-29T00:08:59;128.42;114.11;131.55;;
77135;Laerm;48586;50.122;18.972;2024-03-29T00:12:03;128.91;113.84;131.53;;
77135;Laerm;48586;50.122;18.972;2024-03-29T00:15:07;129.13;115.67;131.47;;
77135;Laerm;48586;50.122;18.972;2024-03-29T00:18:10;129.02;120.04;131.68;;
77135;Laerm;48586;50.122;18.972;2024-03-29T00:21:15;128.79;106.83;131.91;;
77135;Laerm;48586;50.122;18.972;2024-03-29T00:24:18;128.46;118.24;131.69;;
77135;Laerm;48586;50.122;18.972;2024-03-29T00:27:20;128.66;117.09;131.62;;
77135;Laerm;48586;50.122;18.972;2024-03-29T00:30:23;127.55;117.55;130.89;;
77135;Laerm;48586;50.122;18.972;2024-03-29T00:33:26;127.46;113.83;130.62;;
77135;Laerm;48586;50.122;18.972;2024-03-29T00:36:32;127.20;113.46;130.62;;
77135;Laerm;48586;50.122;18.972;2024-03-29T00:39:34;127.33;113.09;130.29;;
77135;Laerm;48586;50.122;18.972;2024-03-29T00:42:37;127.21;115.48;130.40;;
77135;Laerm;48586;50.122;18.972;2024-03-29T00:45:41;127.25;106.95;130.52;;
77135;Laerm;48586;50.122;18.972;2024-03-29T00:48:44;127.27;116.19;130.22;;
77135;Laerm;48586;50.122;18.972;2024-03-29T00:51:48;127.28;113.63;130.48;;
77135;Laerm;48586;50.122;18.972;2024-03-29T00:54:51;127.27;116.65;130.15;;
77135;Laerm;48586;50.122;18.972;2024-03-29T00:57:53;127.28;117.70;130.44;;
77135;Laerm;48586;50.122;18.972;2024-03-29T01:00:56;127.25;114.95;130.54;;
77135;Laerm;48586;50.122;18.972;2024-03-29T01:03:58;127.29;113.06;130.50;;
77135;Laerm;48586;50.122;18.972;2024-03-29T01:07:05;127.26;113.47;130.33;;
77135;Laerm;48586;50.122;18.972;2024-03-29T01:10:09;127.36;117.23;130.49;;
77135;Laerm;48586;50.122;18.972;2024-03-29T01:13:13;127.37;117.45;130.96;;
77135;Laerm;48586;50.122;18.972;2024-03-29T01:16:15;127.48;116.27;130.80;;
77135;Laerm;48586;50.122;18.972;2024-03-29T01:19:18;127.50;118.62;130.46;;
77135;Laerm;48586;50.122;18.972;2024-03-29T01:22:22;127.40;119.68;130.67;;
77135;Laerm;48586;50.122;18.972;2024-03-29T01:25:25;127.44;120.76;130.88;;
77135;Laerm;48586;50.122;18.972;2024-03-29T01:28:27;127.46;119.65;131.23;;
77135;Laerm;48586;50.122;18.972;2024-03-29T01:31:31;127.36;117.15;130.54;;
77135;Laerm;48586;50.122;18.972;2024-03-29T01:34:33;127.32;118.00;130.47;;
77135;Laerm;48586;50.122;18.972;2024-03-29T01:37:39;127.36;119.77;130.73;;
77135;Laerm;48586;50.122;18.972;2024-03-29T01:40:42;127.47;119.50;130.74;;
77135;Laerm;48586;50.122;18.972;2024-03-29T01:43:45;127.47;116.33;130.84;;
77135;Laerm;48586;50.122;18.972;2024-03-29T01:46:48;127.41;120.33;130.39;;
77135;Laerm;48586;50.122;18.972;2024-03-29T01:49:52;127.37;119.25;130.89;;
77135;Laerm;48586;50.122;18.972;2024-03-29T01:52:57;127.61;118.05;131.73;;
77135;Laerm;48586;50.122;18.972;2024-03-29T01:56:01;127.65;120.77;130.88;;
77135;Laerm;48586;50.122;18.972;2024-03-29T01:59:05;127.35;114.60;130.38;;
77135;Laerm;48586;50.122;18.972;2024-03-29T02:02:14;127.39;114.27;130.45;;
77135;Laerm;48586;50.122;18.972;2024-03-29T02:05:18;127.66;116.76;130.47;;
77135;Laerm;48586;50.122;18.972;2024-03-29T02:08:25;127.64;118.81;130.90;;
77135;Laerm;48586;50.122;18.972;2024-03-29T02:11:28;127.78;119.71;130.89;;
77135;Laerm;48586;50.122;18.972;2024-03-29T02:14:31;127.72;120.50;130.73;;
77135;Laerm;48586;50.122;18.972;2024-03-29T02:17:34;127.75;119.64;130.87;;
77135;Laerm;48586;50.122;18.972;2024-03-29T02:20:37;127.41;116.91;130.77;;
77135;Laerm;48586;50.122;18.972;2024-03-29T02:23:47;127.43;114.60;130.51;;
77135;Laerm;48586;50.122;18.972;2024-03-29T02:26:57;127.42;117.13;130.48;;
77135;Laerm;48586;50.122;18.972;2024-03-29T02:29:59;127.50;117.90;130.71;;
77135;Laerm;48586;50.122;18.972;2024-03-29T02:33:03;127.41;119.07;130.57;;
77135;Laerm;48586;50.122;18.972;2024-03-29T02:36:06;127.40;119.65;130.39;;
77135;Laerm;48586;50.122;18.972;2024-03-29T02:39:10;127.56;118.97;130.99;;
77135;Laerm;48586;50.122;18.972;2024-03-29T02:42:15;127.65;118.94;130.67;;
77135;Laerm;48586;50.122;18.972;2024-03-29T02:45:19;127.71;116.79;130.64;;
77135;Laerm;48586;50.122;18.972;2024-03-29T02:48:22;127.99;120.29;131.09;;
77135;Laerm;48586;50.122;18.972;2024-03-29T02:51:25;128.03;121.28;131.32;;
77135;Laerm;48586;50.122;18.972;2024-03-29T02:54:27;127.83;116.48;131.05;;
77135;Laerm;48586;50.122;18.972;2024-03-29T02:57:34;128.04;117.54;131.07;;
77135;Laerm;48586;50.122;18.972;2024-03-29T03:00:36;128.09;120.43;131.09;;
77135;Laerm;48586;50.122;18.972;2024-03-29T03:03:38;128.14;119.61;130.95;;
77135;Laerm;48586;50.122;18.972;2024-03-29T03:06:40;128.11;120.93;131.19;;
77135;Laerm;48586;50.122;18.972;2024-03-29T03:09:43;128.10;121.28;130.84;;
77135;Laerm;48586;50.122;18.972;2024-03-29T03:13:03;127.99;120.78;131.02;;
77135;Laerm;48586;50.122;18.972;2024-03-29T03:16:07;128.04;120.14;131.44;;
77135;Laerm;48586;50.122;18.972;2024-03-29T03:19:08;128.15;122.38;131.02;;
77135;Laerm;48586;50.122;18.972;2024-03-29T03:22:11;128.17;121.84;131.11;;
77135;Laerm;48586;50.122;18.972;2024-03-29T03:25:13;128.14;121.23;130.89;;
77135;Laerm;48586;50.122;18.972;2024-03-29T03:28:19;128.00;121.58;130.99;;
77135;Laerm;48586;50.122;18.972;2024-03-29T03:31:20;128.01;121.03;131.38;;
77135;Laerm;48586;50.122;18.972;2024-03-29T03:34:23;127.82;120.39;130.55;;
77135;Laerm;48586;50.122;18.972;2024-03-29T03:37:25;127.37;121.01;130.44;;
77135;Laerm;48586;50.122;18.972;2024-03-29T03:40:28;127.75;121.82;130.70;;
77135;Laerm;48586;50.122;18.972;2024-03-29T03:43:33;127.91;121.44;130.95;;
77135;Laerm;48586;50.122;18.972;2024-03-29T03:46:35;128.18;121.68;131.32;;
77135;Laerm;48586;50.122;18.972;2024-03-29T03:49:37;127.96;118.92;131.06;;
77135;Laerm;48586;50.122;18.972;2024-03-29T03:52:40;127.64;121.50;130.78;;
77135;Laerm;48586;50.122;18.972;2024-03-29T03:55:42;128.09;120.44;131.24;;
77135;Laerm;48586;50.122;18.972;2024-03-29T03:58:47;127.92;121.41;131.10;;
77135;Laerm;48586;50.122;18.972;2024-03-29T04:01:49;127.34;120.84;130.57;;
77135;Laerm;48586;50.122;18.972;2024-03-29T04:04:52;126.57;120.75;129.44;;
77135;Laerm;48586;50.122;18.972;2024-03-29T04:07:54;126.49;120.71;129.42;;
77135;Laerm;48586;50.122;18.972;2024-03-29T04:10:57;125.85;120.19;128.96;;
77135;Laerm;48586;50.122;18.972;2024-03-29T04:14:02;125.40;118.39;128.54;;
77135;Laerm;48586;50.122;18.972;2024-03-29T04:17:04;125.22;118.95;128.58;;
77135;Laerm;48586;50.122;18.972;2024-03-29T04:20:07;124.68;118.34;128.32;;
77135;Laerm;48586;50.122;18.972;2024-03-29T04:23:10;124.50;118.16;128.87;;
77135;Laerm;48586;50.122;18.972;2024-03-29T04:26:12;124.40;118.63;127.90;;
77135;Laerm;48586;50.122;18.972;2024-03-29T04:29:17;124.11;117.93;127.70;;
77135;Laerm;48586;50.122;18.972;2024-03-29T04:32:20;123.14;116.38;125.84;;
77135;Laerm;48586;50.122;18.972;2024-03-29T04:35:23;122.54;116.27;125.43;;
77135;Laerm;48586;50.122;18.972;2024-03-29T04:38:25;122.11;115.33;125.24;;
77135;Laerm;48586;50.122;18.972;2024-03-29T04:41:28;122.11;114.38;124.89;;
77135;Laerm;48586;50.122;18.972;2024-03-29T04:44:33;121.97;116.71;124.68;;
77135;Laerm;48586;50.122;18.972;2024-03-29T04:47:36;123.85;114.28;128.45;;
77135;Laerm;48586;50.122;18.972;2024-03-29T04:50:38;122.28;116.28;125.29;;
77135;Laerm;48586;50.122;18.972;2024-03-29T04:53:41;121.75;115.69;124.78;;
77135;Laerm;48586;50.122;18.972;2024-03-29T04:56:43;121.65;116.31;124.97;;
77135;Laerm;48586;50.122;18.972;2024-03-29T04:59:49;121.34;112.74;124.75;;
77135;Laerm;48586;50.122;18.972;2024-03-29T05:02:51;121.29;115.00;124.96;;
77135;Laerm;48586;50.122;18.972;2024-03-29T05:05:56;121.45;114.61;124.54;;
77135;Laerm;48586;50.122;18.972;2024-03-29T05:08:58;121.44;113.83;124.89;;
77135;Laerm;48586;50.122;18.972;2024-03-29T05:12:01;121.20;113.20;124.70;;
77135;Laerm;48586;50.122;18.972;2024-03-29T05:15:07;121.07;113.19;124.75;;
77135;Laerm;48586;50.122;18.972;2024-03-29T05:18:10;120.62;112.09;123.98;;
77135;Laerm;48586;50.122;18.972;2024-03-29T05:21:12;120.80;110.19;124.54;;
77135;Laerm;48586;50.122;18.972;2024-03-29T05:24:15;121.25;112.17;124.35;;
77135;Laerm;48586;50.122;18.972;2024-03-29T05:27:16;120.85;112.98;124.57;;
77135;Laerm;48586;50.122;18.972;2024-03-29T05:30:22;120.65;109.92;124.49;;
77135;Laerm;48586;50.122;18.972;2024-03-29T05:33:24;121.29;114.13;125.24;;
77135;Laerm;48586;50.122;18.972;2024-03-29T05:36:26;122.30;115.82;125.64;;
77135;Laerm;48586;50.122;18.972;2024-03-29T05:39:28;121.82;115.33;124.87;;
77135;Laerm;48586;50.122;18.972;2024-03-29T05:42:33;122.14;115.88;125.06;;
77135;Laerm;48586;50.122;18.972;2024-03-29T05:45:38;121.80;114.67;124.62;;
77135;Laerm;48586;50.122;18.972;2024-03-29T05:48:41;121.84;115.07;124.71;;
77135;Laerm;48586;50.122;18.972;2024-03-29T05:51:43;121.65;115.37;124.74;;
77135;Laerm;48586;50.122;18.972;2024-03-29T05:54:46;122.10;117.00;125.02;;
77135;Laerm;48586;50.122;18.972;2024-03-29T05:57:48;121.72;114.91;125.15;;
77135;Laerm;48586;50.122;18.972;2024-03-29T06:00:53;122.13;115.84;124.93;;
77135;Laerm;48586;50.122;18.972;2024-03-29T06:03:56;122.21;113.66;124.89;;
77135;Laerm;48586;50.122;18.972;2024-03-29T06:06:59;121.97;115.90;125.08;;
77135;Laerm;48586;50.122;18.972;2024-03-29T06:10:01;122.13;116.73;125.30;;
77135;Laerm;48586;50.122;18.972;2024-03-29T06:13:05;122.18;114.35;125.08;;
77135;Laerm;48586;50.122;18.972;2024-03-29T06:16:11;122.20;115.93;125.81;;
77135;Laerm;48586;50.122;18.972;2024-03-29T06:19:29;122.48;116.61;125.67;;
77135;Laerm;48586;50.122;18.972;2024-03-29T06:22:32;122.01;115.89;125.25;;
77135;Laerm;48586;50.122;18.972;2024-03-29T06:25:35;123.35;117.48;126.70;;
77135;Laerm;48586;50.122;18.972;2024-03-29T06:28:37;124.07;117.24;127.34;;
77135;Laerm;48586;50.122;18.972;2024-03-29T06:31:43;123.37;116.84;126.91;;
77135;Laerm;48586;50.122;18.972;2024-03-29T06:34:46;122.91;116.51;126.00;;
77135;Laerm;48586;50.122;18.972;2024-03-29T06:37:49;122.62;116.89;125.71;;
77135;Laerm;48586;50.122;18.972;2024-03-29T06:40:52;122.34;116.25;125.55;;
77135;Laerm;48586;50.122;18.972;2024-03-29T06:43:56;122.22;115.00;125.04;;
77135;Laerm;48586;50.122;18.972;2024-03-29T06:47:01;122.02;116.06;125.26;;
77135;Laerm;48586;50.122;18.972;2024-03-29T06:50:05;121.81;113.66;125.02;;
77135;Laerm;48586;50.122;18.972;2024-03-29T06:53:08;122.04;115.73;125.48;;
77135;Laerm;48586;50.122;18.972;2024-03-29T06:56:12;123.55;116.23;127.45;;
77135;Laerm;48586;50.122;18.972;2024-03-29T06:59:15;123.59;117.05;127.27;;
77135;Laerm;48586;50.122;18.972;2024-03-29T07:02:20;123.52;117.55;127.09;;
77135;Laerm;48586;50.122;18.972;2024-03-29T07:05:23;124.55;117.18;127.78;;
77135;Laerm;48586;50.122;18.972;2024-03-29T07:08:25;124.08;116.93;127.23;;
77135;Laerm;48586;50.122;18.972;2024-03-29T07:11:27;123.93;116.45;126.91;;
77135;Laerm;48586;50.122;18.972;2024-03-29T07:14:30;123.15;116.85;126.41;;
77135;Laerm;48586;50.122;18.972;2024-03-29T07:17:36;121.36;111.22;124.90;;
77135;Laerm;48586;50.122;18.972;2024-03-29T07:20:39;119.97;110.41;124.13;;
77135;Laerm;48586;50.122;18.972;2024-03-29T07:23:41;118.85;107.51;122.98;;
77135;Laerm;48586;50.122;18.972;2024-03-29T07:26:44;118.15;100.36;122.96;;
77135;Laerm;48586;50.122;18.972;2024-03-29T07:29:46;117.61;103.57;122.35;;
77135;Laerm;48586;50.122;18.972;2024-03-29T07:32:53;118.48;102.24;124.19;;
77135;Laerm;48586;50.122;18.972;2024-03-29T07:35:57;117.07;98.74;121.96;;
77135;Laerm;48586;50.122;18.972;2024-03-29T07:39:00;116.11;97.46;121.49;;
77135;Laerm;48586;50.122;18.972;2024-03-29T07:42:03;115.84;96.38;122.22;;
77135;Laerm;48586;50.122;18.972;2024-03-29T07:45:09;117.57;95.48;123.05;;
77135;Laerm;48586;50.122;18.972;2024-03-29T07:48:16;117.50;98.67;122.85;;
77135;Laerm;48586;50.122;18.972;2024-03-29T07:51:19;115.02;85.99;121.45;;
77135;Laerm;48586;50.122;18.972;2024-03-29T07:54:21;115.25;60.27;123.10;;
77135;Laerm;48586;50.122;18.972;2024-03-29T07:57:24;115.21;71.23;120.86;;
77135;Laerm;48586;50.122;18.972;2024-03-29T08:00:27;117.02;43.04;122.17;;
77135;Laerm;48586;50.122;18.972;2024-03-29T08:03:32;114.94;50.37;121.40;;
77135;Laerm;48586;50.122;18.972;2024-03-29T08:06:36;116.46;98.34;121.72;;
77135;Laerm;48586;50.122;18.972;2024-03-29T08:09:39;115.32;85.56;121.24;;
77135;Laerm;48586;50.122;18.972;2024-03-29T08:12:41;116.26;98.06;120.98;;
77135;Laerm;48586;50.122;18.972;2024-03-29T08:15:44;115.89;55.43;121.27;;
77135;Laerm;48586;50.122;18.972;2024-03-29T08:18:49;115.09;89.38;120.97;;
77135;Laerm;48586;50.122;18.972;2024-03-29T08:21:52;117.47;89.41;122.49;;
77135;Laerm;48586;50.122;18.972;2024-03-29T08:24:54;118.12;103.60;121.75;;
77135;Laerm;48586;50.122;18.972;2024-03-29T08:27:57;117.71;98.15;122.39;;
77135;Laerm;48586;50.122;18.972;2024-03-29T08:31:02;113.89;47.44;120.07;;
77135;Laerm;48586;50.122;18.972;2024-03-29T08:34:08;114.33;76.99;120.10;;
77135;Laerm;48586;50.122;18.972;2024-03-29T08:37:11;113.55;49.34;119.13;;
77135;Laerm;48586;50.122;18.972;2024-03-29T08:40:14;114.53;94.11;120.61;;
77135;Laerm;48586;50.122;18.972;2024-03-29T08:43:16;114.69;90.88;120.99;;
77135;Laerm;48586;50.122;18.972;2024-03-29T08:46:20;115.17;36.07;121.42;;
77135;Laerm;48586;50.122;18.972;2024-03-29T08:49:25;115.02;96.80;120.93;;
77135;Laerm;48586;50.122;18.972;2024-03-29T08:52:28;113.90;59.80;119.76;;
77135;Laerm;48586;50.122;18.972;2024-03-29T08:55:30;113.52;51.12;119.43;;
77135;Laerm;48586;50.122;18.972;2024-03-29T08:58:33;113.66;81.14;119.95;;
77135;Laerm;48586;50.122;18.972;2024-03-29T09:01:38;114.14;23.93;120.07;;
77135;Laerm;48586;50.122;18.972;2024-03-29T09:04:44;113.59;39.38;119.31;;
77135;Laerm;48586;50.122;18.972;2024-03-29T09:07:46;114.17;90.52;119.51;;
77135;Laerm;48586;50.122;18.972;2024-03-29T09:10:49;115.53;47.06;121.97;;
77135;Laerm;48586;50.122;18.972;2024-03-29T09:13:51;113.40;54.95;118.78;;
77135;Laerm;48586;50.122;18.972;2024-03-29T09:16:55;113.70;70.73;119.85;;
77135;Laerm;48586;50.122;18.972;2024-03-29T09:20:00;113.63;52.82;120.01;;
77135;Laerm;48586;50.122;18.972;2024-03-29T09:23:04;113.76;34.70;119.33;;
77135;Laerm;48586;50.122;18.972;2024-03-29T09:26:06;113.62;38.37;119.64;;
77135;Laerm;48586;50.122;18.972;2024-03-29T09:29:09;114.06;39.27;119.58;;
77135;Laerm;48586;50.122;18.972;2024-03-29T09:32:11;114.03;45.95;120.75;;
77135;Laerm;48586;50.122;18.972;2024-03-29T09:35:18;113.80;56.14;119.78;;
77135;Laerm;48586;50.122;18.972;2024-03-29T09:38:20;114.57;48.25;123.38;;
77135;Laerm;48586;50.122;18.972;2024-03-29T09:41:26;122.28;112.12;127.32;;
77135;Laerm;48586;50.122;18.972;2024-03-29T09:44:33;122.48;115.60;125.44;;
77135;Laerm;48586;50.122;18.972;2024-03-29T09:47:37;121.90;109.27;125.88;;
77135;Laerm;48586;50.122;18.972;2024-03-29T09:50:43;119.99;103.46;124.28;;
77135;Laerm;48586;50.122;18.972;2024-03-29T09:53:47;120.37;103.49;125.14;;
77135;Laerm;48586;50.122;18.972;2024-03-29T09:56:50;121.42;109.41;124.92;;
77135;Laerm;48586;50.122;18.972;2024-03-29T09:59:53;121.73;108.37;124.91;;
77135;Laerm;48586;50.122;18.972;2024-03-29T10:02:57;121.85;109.09;125.30;;
77135;Laerm;48586;50.122;18.972;2024-03-29T10:06:03;124.13;113.23;128.07;;
77135;Laerm;48586;50.122;18.972;2024-03-29T10:09:06;124.77;114.50;128.55;;
77135;Laerm;48586;50.122;18.972;2024-03-29T10:12:09;122.56;114.31;125.37;;
77135;Laerm;48586;50.122;18.972;2024-03-29T10:15:12;123.50;115.47;127.42;;
77135;Laerm;48586;50.122;18.972;2024-03-29T10:18:16;122.12;111.86;125.90;;
77135;Laerm;48586;50.122;18.972;2024-03-29T10:21:25;122.56;115.09;125.57;;
77135;Laerm;48586;50.122;18.972;2024-03-29T10:24:29;123.96;114.69;128.39;;
77135;Laerm;48586;50.122;18.972;2024-03-29T10:27:31;122.27;113.34;127.46;;
77135;Laerm;48586;50.122;18.972;2024-03-29T10:30:34;126.03;107.26;131.85;;
77135;Laerm;48586;50.122;18.972;2024-03-29T10:33:36;125.33;119.56;128.60;;
77135;Laerm;48586;50.122;18.972;2024-03-29T10:36:42;124.28;119.02;127.76;;
77135;Laerm;48586;50.122;18.972;2024-03-29T10:39:44;124.40;119.70;127.86;;
77135;Laerm;48586;50.122;18.972;2024-03-29T10:42:48;124.21;119.31;127.66;;
77135;Laerm;48586;50.122;18.972;2024-03-29T10:45:51;124.42;118.61;127.91;;
77135;Laerm;48586;50.122;18.972;2024-03-29T10:48:54;124.46;116.90;127.51;;
77135;Laerm;48586;50.122;18.972;2024-03-29T10:52:00;124.54;119.95;127.54;;
77135;Laerm;48586;50.122;18.972;2024-03-29T10:55:03;120.69;114.72;127.10;;
77135;Laerm;48586;50.122;18.972;2024-03-29T10:58:07;120.19;115.12;126.52;;
77135;Laerm;48586;50.122;18.972;2024-03-29T11:01:14;119.99;114.97;125.88;;
77135;Laerm;48586;50.122;18.972;2024-03-29T11:04:22;119.94;114.74;125.94;;
77135;Laerm;48586;50.122;18.972;2024-03-29T11:07:39;119.89;114.76;125.37;;
77135;Laerm;48586;50.122;18.972;2024-03-29T11:10:46;119.89;115.33;125.74;;
77135;Laerm;48586;50.122;18.972;2024-03-29T11:13:58;119.92;115.03;125.33;;
77135;Laerm;48586;50.122;18.972;2024-03-29T11:17:04;119.87;114.74;125.18;;
77135;Laerm;48586;50.122;18.972;2024-03-29T11:20:10;119.90;114.97;125.90;;
77135;Laerm;48586;50.122;18.972;2024-03-29T11:23:18;120.08;115.29;124.70;;
77135;Laerm;48586;50.122;18.972;2024-03-29T11:26:22;120.71;115.95;124.61;;
77135;Laerm;48586;50.122;18.972;2024-03-29T11:29:25;121.92;117.84;125.61;;
77135;Laerm;48586;50.122;18.972;2024-03-29T11:32:38;121.09;116.21;124.64;;
77135;Laerm;48586;50.122;18.972;2024-03-29T11:35:41;120.16;115.67;124.80;;
77135;Laerm;48586;50.122;18.972;2024-03-29T11:38:48;120.36;115.60;124.76;;
77135;Laerm;48586;50.122;18.972;2024-03-29T11:41:51;120.40;115.95;125.43;;
77135;Laerm;48586;50.122;18.972;2024-03-29T11:44:54;120.60;116.29;124.83;;
77135;Laerm;48586;50.122;18.972;2024-03-29T11:48:06;122.65;116.25;125.86;;
77135;Laerm;48586;50.122;18.972;2024-03-29T11:51:13;123.88;120.22;126.52;;
77135;Laerm;48586;50.122;18.972;2024-03-29T11:54:18;124.58;120.33;126.95;;
77135;Laerm;48586;50.122;18.972;2024-03-29T11:57:21;124.66;120.44;126.84;;
77135;Laerm;48586;50.122;18.972;2024-03-29T12:00:23;124.36;119.38;126.75;;
77135;Laerm;48586;50.122;18.972;2024-03-29T12:03:29;124.40;120.95;126.58;;
77135;Laerm;48586;50.122;18.972;2024-03-29T12:06:31;122.03;115.63;126.01;;
77135;Laerm;48586;50.122;18.972;2024-03-29T12:09:37;119.91;115.06;124.23;;
77135;Laerm;48586;50.122;18.972;2024-03-29T12:12:39;119.91;115.23;124.81;;
77135;Laerm;48586;50.122;18.972;2024-03-29T12:15:43;119.91;114.83;125.00;;
77135;Laerm;48586;50.122;18.972;2024-03-29T12:18:47;119.91;114.67;125.35;;
77135;Laerm;48586;50.122;18.972;2024-03-29T12:21:51;119.92;114.76;125.21;;
77135;Laerm;48586;50.122;18.972;2024-03-29T12:24:57;120.01;115.33;124.12;;
77135;Laerm;48586;50.122;18.972;2024-03-29T12:28:01;119.90;115.09;124.44;;
77135;Laerm;48586;50.122;18.972;2024-03-29T12:31:03;119.91;115.21;124.02;;
77135;Laerm;48586;50.122;18.972;2024-03-29T12:34:06;119.86;115.04;124.38;;
77135;Laerm;48586;50.122;18.972;2024-03-29T12:37:09;119.89;115.18;125.45;;
77135;Laerm;48586;50.122;18.972;2024-03-29T12:40:16;119.93;114.79;124.83;;
77135;Laerm;48586;50.122;18.972;2024-03-29T12:43:21;120.16;115.56;124.00;;
77135;Laerm;48586;50.122;18.972;2024-03-29T12:46:25;121.04;116.55;125.18;;
77135;Laerm;48586;50.122;18.972;2024-03-29T12:49:28;123.88;118.26;126.79;;
77135;Laerm;48586;50.122;18.972;2024-03-29T12:52:37;124.52;120.44;126.83;;
77135;Laerm;48586;50.122;18.972;2024-03-29T12:55:46;123.66;119.02;126.42;;
77135;Laerm;48586;50.122;18.972;2024-03-29T12:58:49;122.23;117.19;126.08;;
77135;Laerm;48586;50.122;18.972;2024-03-29T13:01:51;121.39;117.23;125.78;;
77135;Laerm;48586;50.122;18.972;2024-03-29T13:04:54;124.14;120.81;126.82;;
77135;Laerm;48586;50.122;18.972;2024-03-29T13:07:56;124.69;121.20;126.91;;
77135;Laerm;48586;50.122;18.972;2024-03-29T13:11:02;122.87;118.38;126.36;;
77135;Laerm;48586;50.122;18.972;2024-03-29T13:14:06;122.23;118.20;125.45;;
77135;Laerm;48586;50.122;18.972;2024-03-29T13:17:09;122.16;116.80;125.93;;
77135;Laerm;48586;50.122;18.972;2024-03-29T13:20:13;119.85;114.46;125.05;;
77135;Laerm;48586;50.122;18.972;2024-03-29T13:23:17;119.86;114.85;123.77;;
77135;Laerm;48586;50.122;18.972;2024-03-29T13:26:22;119.84;115.06;124.83;;
77135;Laerm;48586;50.122;18.972;2024-03-29T13:29:25;119.83;114.58;125.06;;
77135;Laerm;48586;50.122;18.972;2024-03-29T13:32:27;119.86;114.90;123.99;;
77135;Laerm;48586;50.122;18.972;2024-03-29T13:35:30;119.98;113.94;124.16;;
77135;Laerm;48586;50.122;18.972;2024-03-29T13:38:32;119.97;115.10;124.54;;
77135;Laerm;48586;50.122;18.972;2024-03-29T13:41:38;119.97;114.94;123.95;;
77135;Laerm;48586;50.122;18.972;2024-03-29T13:44:40;119.80;114.17;124.55;;
77135;Laerm;48586;50.122;18.972;2024-03-29T13:47:45;119.84;114.92;124.70;;
77135;Laerm;48586;50.122;18.972;2024-03-29T13:50:48;119.84;114.98;124.33;;
77135;Laerm;48586;50.122;18.972;2024-03-29T13:53:51;119.88;114.92;124.88;;
77135;Laerm;48586;50.122;18.972;2024-03-29T13:56:55;119.94;114.69;123.53;;
77135;Laerm;48586;50.122;18.972;2024-03-29T13:59:59;119.95;114.60;126.96;;
77135;Laerm;48586;50.122;18.972;2024-03-29T14:03:02;120.01;115.03;125.71;;
77135;Laerm;48586;50.122;18.972;2024-03-29T14:06:06;120.19;115.72;125.40;;
77135;Laerm;48586;50.122;18.972;2024-03-29T14:09:08;120.15;115.05;126.24;;
77135;Laerm;48586;50.122;18.972;2024-03-29T14:12:14;120.12;115.06;126.24;;
77135;Laerm;48586;50.122;18.972;2024-03-29T14:17:34;120.24;115.36;123.82;;
77135;Laerm;48586;50.122;18.972;2024-03-29T14:20:37;120.35;115.73;125.96;;
77135;Laerm;48586;50.122;18.972;2024-03-29T14:23:40;120.17;114.90;125.37;;
77135;Laerm;48586;50.122;18.972;2024-03-29T14:26:43;120.06;114.22;125.69;;
77135;Laerm;48586;50.122;18.972;2024-03-29T14:29:46;120.00;114.64;124.82;;
77135;Laerm;48586;50.122;18.972;2024-03-29T14:32:52;120.03;114.94;125.74;;
77135;Laerm;48586;50.122;18.972;2024-03-29T14:35:54;120.00;115.11;125.60;;
77135;Laerm;48586;50.122;18.972;2024-03-29T14:38:57;119.98;112.70;125.62;;
77135;Laerm;48586;50.122;18.972;2024-03-29T14:41:59;119.95;114.76;124.22;;
77135;Laerm;48586;50.122;18.972;2024-03-29T14:45:03;120.12;115.03;125.68;;
77135;Laerm;48586;50.122;18.972;2024-03-29T14:48:08;120.70;115.82;125.75;;
77135;Laerm;48586;50.122;18.972;2024-03-29T14:51:11;122.05;116.99;126.01;;
77135;Laerm;48586;50.122;18.972;2024-03-29T14:54:13;122.72;117.59;126.12;;
77135;Laerm;48586;50.122;18.972;2024-03-29T14:57:16;123.04;117.86;127.05;;
77135;Laerm;48586;50.122;18.972;2024-03-29T15:00:19;125.64;119.46;128.55;;
77135;Laerm;48586;50.122;18.972;2024-03-29T15:03:25;127.65;122.43;130.58;;
77135;Laerm;48586;50.122;18.972;2024-03-29T15:06:27;127.77;119.73;130.36;;
77135;Laerm;48586;50.122;18.972;2024-03-29T15:09:30;127.49;116.95;130.76;;
77135;Laerm;48586;50.122;18.972;2024-03-29T15:12:33;127.63;119.14;131.09;;
77135;Laerm;48586;50.122;18.972;2024-03-29T15:15:36;127.66;119.01;130.84;;
77135;Laerm;48586;50.122;18.972;2024-03-29T15:18:41;127.70;117.80;131.07;;
77135;Laerm;48586;50.122;18.972;2024-03-29T15:21:44;127.71;116.96;130.89;;
77135;Laerm;48586;50.122;18.972;2024-03-29T15:24:46;127.68;118.30;130.76;;
77135;Laerm;48586;50.122;18.972;2024-03-29T15:27:49;127.69;115.79;131.23;;
77135;Laerm;48586;50.122;18.972;2024-03-29T15:31:10;127.71;118.47;131.13;;
77135;Laerm;48586;50.122;18.972;2024-03-29T15:34:17;127.61;114.97;130.91;;
77135;Laerm;48586;50.122;18.972;2024-03-29T15:37:19;127.58;119.54;131.02;;
77135;Laerm;48586;50.122;18.972;2024-03-29T15:40:22;127.56;119.06;130.88;;
77135;Laerm;48586;50.122;18.972;2024-03-29T15:43:24;127.58;120.50;131.10;;
77135;Laerm;48586;50.122;18.972;2024-03-29T15:46:28;127.61;118.80;130.98;;
77135;Laerm;48586;50.122;18.972;2024-03-29T15:49:33;127.67;119.75;131.13;;
77135;Laerm;48586;50.122;18.972;2024-03-29T15:52:35;127.71;114.52;131.19;;
77135;Laerm;48586;50.122;18.972;2024-03-29T15:55:38;127.74;120.23;131.08;;
77135;Laerm;48586;50.122;18.972;2024-03-29T15:58:40;127.70;119.28;131.27;;
77135;Laerm;48586;50.122;18.972;2024-03-29T16:01:43;127.71;116.29;131.14;;
77135;Laerm;48586;50.122;18.972;2024-03-29T16:04:48;127.74;120.01;131.41;;
77135;Laerm;48586;50.122;18.972;2024-03-29T16:07:50;127.74;117.61;130.98;;
77135;Laerm;48586;50.122;18.972;2024-03-29T16:10:55;127.67;119.35;130.96;;
77135;Laerm;48586;50.122;18.972;2024-03-29T16:13:57;127.71;116.51;131.00;;
77135;Laerm;48586;50.122;18.972;2024-03-29T16:17:00;127.74;115.87;131.37;;
77135;Laerm;48586;50.122;18.972;2024-03-29T16:20:07;127.75;118.51;131.20;;